Terminal Aerodrome Forecast
Issued by NWS Oklahoma City, OK

Home | Current Version | Previous Version | Text Only | Print | Product List | Glossary On
Versions: 1 2 3 4 5 6 7 8 9 10 11 12 13
000
FTUS44 KOUN 231734
TAFOUN
TAF
KOUN 231734Z 2318/2418 20011KT P6SM FEW250
     FM231900 20014G22KT P6SM FEW250
     FM240000 20010KT P6SM FEW250
     FM240600 32012G18KT P6SM FEW250=

USA.gov is the U.S. government's official web portal to all federal, state and local government web resources and services.